sensor_id;sensor_type;location;lat;lon;timestamp;pressure;altitude;pressure_sealevel;temperature;humidity
65384;BME280;51986;52.788;41.368;2023-02-23T00:02:25;98661.03;;;-15.61;56.33
65384;BME280;51986;52.788;41.368;2023-02-23T00:04:52;98659.09;;;-15.54;56.08
65384;BME280;51986;52.788;41.368;2023-02-23T00:07:19;98662.72;;;-15.45;55.97
65384;BME280;51986;52.788;41.368;2023-02-23T00:09:46;98658.81;;;-15.58;55.78
65384;BME280;51986;52.788;41.368;2023-02-23T00:12:13;98651.50;;;-15.54;56.34
65384;BME280;51986;52.788;41.368;2023-02-23T00:14:39;98680.38;;;-15.50;55.87
65384;BME280;51986;52.788;41.368;2023-02-23T00:17:06;98658.22;;;-15.43;55.48
65384;BME280;51986;52.788;41.368;2023-02-23T00:19:33;98674.88;;;-15.20;54.92
65384;BME280;51986;52.788;41.368;2023-02-23T00:22:00;98660.91;;;-15.50;54.90
65384;BME280;51986;52.788;41.368;2023-02-23T00:24:27;98657.66;;;-15.45;55.23
65384;BME280;51986;52.788;41.368;2023-02-23T00:26:54;98668.47;;;-15.28;55.21
65384;BME280;51986;52.788;41.368;2023-02-23T00:29:22;98631.50;;;-15.34;54.74
65384;BME280;51986;52.788;41.368;2023-02-23T00:31:50;98679.31;;;-15.32;54.77
65384;BME280;51986;52.788;41.368;2023-02-23T00:34:20;98671.34;;;-15.19;54.65
65384;BME280;51986;52.788;41.368;2023-02-23T00:36:52;98690.28;;;-15.22;54.65
65384;BME280;51986;52.788;41.368;2023-02-23T00:39:21;98674.91;;;-15.42;55.02
65384;BME280;51986;52.788;41.368;2023-02-23T00:41:49;98697.72;;;-15.37;54.38
65384;BME280;51986;52.788;41.368;2023-02-23T00:44:17;98670.59;;;-15.19;54.39
65384;BME280;51986;52.788;41.368;2023-02-23T00:46:44;98694.94;;;-15.13;54.33
65384;BME280;51986;52.788;41.368;2023-02-23T00:49:12;98666.63;;;-15.10;54.13
65384;BME280;51986;52.788;41.368;2023-02-23T00:51:40;98653.97;;;-15.37;54.40
65384;BME280;51986;52.788;41.368;2023-02-23T00:54:09;98678.44;;;-15.16;54.29
65384;BME280;51986;52.788;41.368;2023-02-23T00:56:37;98675.41;;;-15.40;54.28
65384;BME280;51986;52.788;41.368;2023-02-23T00:59:04;98676.56;;;-15.53;55.02
65384;BME280;51986;52.788;41.368;2023-02-23T01:01:32;98693.19;;;-15.57;55.41
65384;BME280;51986;52.788;41.368;2023-02-23T01:04:00;98670.59;;;-15.63;56.02
65384;BME280;51986;52.788;41.368;2023-02-23T01:06:29;98690.38;;;-15.60;55.45
65384;BME280;51986;52.788;41.368;2023-02-23T01:08:56;98699.19;;;-15.41;55.45
65384;BME280;51986;52.788;41.368;2023-02-23T01:11:25;98686.41;;;-15.73;55.57
65384;BME280;51986;52.788;41.368;2023-02-23T01:13:55;98704.59;;;-15.54;55.47
65384;BME280;51986;52.788;41.368;2023-02-23T01:16:26;98706.53;;;-15.61;55.53
65384;BME280;51986;52.788;41.368;2023-02-23T01:18:55;98688.00;;;-15.89;56.08
65384;BME280;51986;52.788;41.368;2023-02-23T01:21:35;98683.31;;;-16.02;56.22
65384;BME280;51986;52.788;41.368;2023-02-23T01:24:02;98689.25;;;-15.91;55.91
65384;BME280;51986;52.788;41.368;2023-02-23T01:26:33;98693.66;;;-15.82;56.21
65384;BME280;51986;52.788;41.368;2023-02-23T01:29:20;98710.59;;;-15.60;56.02
65384;BME280;51986;52.788;41.368;2023-02-23T01:31:49;98705.22;;;-15.86;56.13
65384;BME280;51986;52.788;41.368;2023-02-23T01:34:18;98701.41;;;-15.88;56.29
65384;BME280;51986;52.788;41.368;2023-02-23T01:36:45;98708.78;;;-15.65;55.78
65384;BME280;51986;52.788;41.368;2023-02-23T01:39:14;98709.31;;;-15.63;55.90
65384;BME280;51986;52.788;41.368;2023-02-23T01:41:42;98731.69;;;-15.50;55.41
65384;BME280;51986;52.788;41.368;2023-02-23T01:46:41;98722.94;;;-15.42;54.90
65384;BME280;51986;52.788;41.368;2023-02-23T01:49:13;98701.66;;;-15.46;54.94
65384;BME280;51986;52.788;41.368;2023-02-23T01:51:44;98697.13;;;-15.66;54.52
65384;BME280;51986;52.788;41.368;2023-02-23T01:54:19;98724.53;;;-15.58;54.71
65384;BME280;51986;52.788;41.368;2023-02-23T01:56:50;98728.66;;;-15.52;54.79
65384;BME280;51986;52.788;41.368;2023-02-23T01:59:20;98711.06;;;-15.63;55.22
65384;BME280;51986;52.788;41.368;2023-02-23T02:01:47;98743.25;;;-15.37;54.92
65384;BME280;51986;52.788;41.368;2023-02-23T02:04:14;98738.25;;;-15.32;54.18
65384;BME280;51986;52.788;41.368;2023-02-23T02:06:44;98732.13;;;-15.36;54.29
65384;BME280;51986;52.788;41.368;2023-02-23T02:09:16;98756.34;;;-15.40;54.17
65384;BME280;51986;52.788;41.368;2023-02-23T02:11:43;98758.41;;;-15.37;54.59
65384;BME280;51986;52.788;41.368;2023-02-23T02:14:20;98761.06;;;-15.27;53.91
65384;BME280;51986;52.788;41.368;2023-02-23T02:22:33;98767.41;;;-15.46;54.21
65384;BME280;51986;52.788;41.368;2023-02-23T02:25:47;98761.19;;;-15.38;54.33
65384;BME280;51986;52.788;41.368;2023-02-23T02:28:43;98769.13;;;-15.52;54.68
65384;BME280;51986;52.788;41.368;2023-02-23T02:42:43;98769.03;;;-15.57;55.00
65384;BME280;51986;52.788;41.368;2023-02-23T02:45:38;98776.19;;;-15.70;55.86
65384;BME280;51986;52.788;41.368;2023-02-23T02:50:55;98768.41;;;-15.86;55.30
65384;BME280;51986;52.788;41.368;2023-02-23T02:54:13;98768.25;;;-15.79;55.42
65384;BME280;51986;52.788;41.368;2023-02-23T02:56:22;98777.34;;;-15.78;55.13
65384;BME280;51986;52.788;41.368;2023-02-23T02:58:52;98808.88;;;-15.64;54.95
65384;BME280;51986;52.788;41.368;2023-02-23T03:01:19;98797.03;;;-15.80;55.72
65384;BME280;51986;52.788;41.368;2023-02-23T03:03:49;98811.41;;;-15.47;54.54
65384;BME280;51986;52.788;41.368;2023-02-23T03:06:19;98786.31;;;-15.70;54.56
65384;BME280;51986;52.788;41.368;2023-02-23T03:08:57;98814.63;;;-15.68;54.82
65384;BME280;51986;52.788;41.368;2023-02-23T03:12:11;98802.16;;;-15.92;55.13
65384;BME280;51986;52.788;41.368;2023-02-23T03:15:03;98800.41;;;-15.75;54.35
65384;BME280;51986;52.788;41.368;2023-02-23T03:17:45;98788.47;;;-15.96;54.94
65384;BME280;51986;52.788;41.368;2023-02-23T03:23:18;98779.72;;;-15.88;54.76
65384;BME280;51986;52.788;41.368;2023-02-23T03:25:53;98804.13;;;-15.99;54.89
65384;BME280;51986;52.788;41.368;2023-02-23T03:28:31;98801.47;;;-15.87;54.67
65384;BME280;51986;52.788;41.368;2023-02-23T03:34:09;98821.53;;;-15.64;54.35
65384;BME280;51986;52.788;41.368;2023-02-23T03:36:46;98806.22;;;-15.74;54.58
65384;BME280;51986;52.788;41.368;2023-02-23T03:39:23;98798.19;;;-15.88;54.37
65384;BME280;51986;52.788;41.368;2023-02-23T03:41:56;98742.72;;;-16.00;54.75
65384;BME280;51986;52.788;41.368;2023-02-23T03:44:30;98809.09;;;-16.04;55.51
65384;BME280;51986;52.788;41.368;2023-02-23T03:47:00;98808.38;;;-15.83;55.11
65384;BME280;51986;52.788;41.368;2023-02-23T03:49:33;98828.97;;;-15.91;54.61
65384;BME280;51986;52.788;41.368;2023-02-23T03:52:09;98802.16;;;-15.92;54.81
65384;BME280;51986;52.788;41.368;2023-02-23T03:54:44;98811.59;;;-15.87;55.03
65384;BME280;51986;52.788;41.368;2023-02-23T03:57:15;98817.56;;;-15.77;54.96
65384;BME280;51986;52.788;41.368;2023-02-23T04:00:02;98821.16;;;-15.89;54.43
65384;BME280;51986;52.788;41.368;2023-02-23T04:02:40;98825.22;;;-15.88;55.20
65384;BME280;51986;52.788;41.368;2023-02-23T04:05:12;98836.97;;;-15.99;55.08
65384;BME280;51986;52.788;41.368;2023-02-23T04:07:43;98841.53;;;-15.96;54.36
65384;BME280;51986;52.788;41.368;2023-02-23T04:10:13;98847.75;;;-15.87;54.69
65384;BME280;51986;52.788;41.368;2023-02-23T04:12:55;98860.84;;;-16.07;55.44
65384;BME280;51986;52.788;41.368;2023-02-23T04:15:30;98848.53;;;-16.03;55.08
65384;BME280;51986;52.788;41.368;2023-02-23T04:17:58;98859.53;;;-16.09;55.08
65384;BME280;51986;52.788;41.368;2023-02-23T04:20:26;98848.13;;;-16.12;55.14
65384;BME280;51986;52.788;41.368;2023-02-23T04:22:53;98857.63;;;-16.02;55.20
65384;BME280;51986;52.788;41.368;2023-02-23T04:25:20;98880.19;;;-16.12;55.84
65384;BME280;51986;52.788;41.368;2023-02-23T04:27:48;98862.38;;;-16.06;55.01
65384;BME280;51986;52.788;41.368;2023-02-23T04:30:16;98866.44;;;-16.05;55.68
65384;BME280;51986;52.788;41.368;2023-02-23T04:32:43;98878.44;;;-16.12;55.11
65384;BME280;51986;52.788;41.368;2023-02-23T04:35:11;98858.47;;;-16.13;55.64
65384;BME280;51986;52.788;41.368;2023-02-23T04:37:38;98866.56;;;-16.11;55.11
65384;BME280;51986;52.788;41.368;2023-02-23T04:40:06;98880.19;;;-16.12;54.98
65384;BME280;51986;52.788;41.368;2023-02-23T04:42:33;98899.06;;;-15.69;54.67
65384;BME280;51986;52.788;41.368;2023-02-23T04:45:00;98861.22;;;-15.81;54.61
65384;BME280;51986;52.788;41.368;2023-02-23T04:47:27;98888.19;;;-15.53;54.11
65384;BME280;51986;52.788;41.368;2023-02-23T04:49:54;98871.81;;;-15.67;53.36
65384;BME280;51986;52.788;41.368;2023-02-23T04:52:21;98878.47;;;-15.61;53.90
65384;BME280;51986;52.788;41.368;2023-02-23T04:54:48;98863.22;;;-15.66;53.72
65384;BME280;51986;52.788;41.368;2023-02-23T04:57:15;98862.00;;;-15.81;53.64
65384;BME280;51986;52.788;41.368;2023-02-23T04:59:42;98873.03;;;-15.53;53.55
65384;BME280;51986;52.788;41.368;2023-02-23T05:02:09;98889.41;;;-15.39;53.18
65384;BME280;51986;52.788;41.368;2023-02-23T05:04:36;98901.66;;;-15.48;53.23
65384;BME280;51986;52.788;41.368;2023-02-23T05:07:04;98890.75;;;-15.31;52.87
65384;BME280;51986;52.788;41.368;2023-02-23T05:09:31;98882.88;;;-14.96;52.73
65384;BME280;51986;52.788;41.368;2023-02-23T05:11:58;98904.66;;;-14.95;52.07
65384;BME280;51986;52.788;41.368;2023-02-23T05:14:25;98918.91;;;-14.89;52.66
65384;BME280;51986;52.788;41.368;2023-02-23T05:16:52;98883.78;;;-14.85;52.28
65384;BME280;51986;52.788;41.368;2023-02-23T05:19:19;98899.19;;;-14.87;52.21
65384;BME280;51986;52.788;41.368;2023-02-23T05:21:47;98894.78;;;-14.75;52.21
65384;BME280;51986;52.788;41.368;2023-02-23T05:24:15;98896.72;;;-14.82;52.20
65384;BME280;51986;52.788;41.368;2023-02-23T05:26:42;98914.88;;;-14.63;51.93
65384;BME280;51986;52.788;41.368;2023-02-23T05:29:10;98910.06;;;-14.43;51.78
65384;BME280;51986;52.788;41.368;2023-02-23T05:31:41;98915.44;;;-14.12;51.73
65384;BME280;51986;52.788;41.368;2023-02-23T05:34:08;98908.06;;;-14.13;51.38
65384;BME280;51986;52.788;41.368;2023-02-23T05:36:37;98920.84;;;-14.03;50.55
65384;BME280;51986;52.788;41.368;2023-02-23T05:39:04;98882.16;;;-14.21;50.80
65384;BME280;51986;52.788;41.368;2023-02-23T05:41:31;98913.84;;;-14.18;51.28
65384;BME280;51986;52.788;41.368;2023-02-23T05:43:58;98895.50;;;-14.03;51.17
65384;BME280;51986;52.788;41.368;2023-02-23T05:46:26;98892.03;;;-13.92;50.24
65384;BME280;51986;52.788;41.368;2023-02-23T05:49:00;98899.09;;;-13.99;50.63
65384;BME280;51986;52.788;41.368;2023-02-23T05:51:29;98915.13;;;-13.61;49.93
65384;BME280;51986;52.788;41.368;2023-02-23T05:53:57;98899.50;;;-13.80;50.32
65384;BME280;51986;52.788;41.368;2023-02-23T05:56:24;98932.91;;;-13.56;49.67
65384;BME280;51986;52.788;41.368;2023-02-23T05:58:53;98930.13;;;-13.13;48.94
65384;BME280;51986;52.788;41.368;2023-02-23T06:01:23;98924.34;;;-13.08;48.37
65384;BME280;51986;52.788;41.368;2023-02-23T06:03:53;98924.81;;;-12.58;47.82
65384;BME280;51986;52.788;41.368;2023-02-23T06:06:20;98916.16;;;-12.63;47.72
65384;BME280;51986;52.788;41.368;2023-02-23T06:08:48;98910.91;;;-12.46;47.42
65384;BME280;51986;52.788;41.368;2023-02-23T06:11:17;98940.78;;;-12.68;48.06
65384;BME280;51986;52.788;41.368;2023-02-23T06:13:45;98925.41;;;-12.41;47.68
65384;BME280;51986;52.788;41.368;2023-02-23T06:16:12;98935.00;;;-12.48;47.68
65384;BME280;51986;52.788;41.368;2023-02-23T06:18:39;98934.59;;;-12.25;46.43
65384;BME280;51986;52.788;41.368;2023-02-23T06:21:06;98948.84;;;-12.14;46.88
65384;BME280;51986;52.788;41.368;2023-02-23T06:23:33;98921.16;;;-11.95;45.94
65384;BME280;51986;52.788;41.368;2023-02-23T06:26:00;98944.31;;;-11.91;45.88
65384;BME280;51986;52.788;41.368;2023-02-23T06:28:28;98942.31;;;-11.89;46.68
65384;BME280;51986;52.788;41.368;2023-02-23T06:30:57;98947.38;;;-11.94;46.19
65384;BME280;51986;52.788;41.368;2023-02-23T06:33:28;98948.63;;;-11.71;46.33
65384;BME280;51986;52.788;41.368;2023-02-23T06:35:55;98953.75;;;-11.51;45.06
65384;BME280;51986;52.788;41.368;2023-02-23T06:38:22;98950.44;;;-11.31;45.40
65384;BME280;51986;52.788;41.368;2023-02-23T06:40:49;98947.13;;;-11.32;44.67
65384;BME280;51986;52.788;41.368;2023-02-23T06:43:16;98962.56;;;-10.77;44.15
65384;BME280;51986;52.788;41.368;2023-02-23T06:45:45;98973.34;;;-11.06;43.96
65384;BME280;51986;52.788;41.368;2023-02-23T06:48:13;98960.69;;;-10.41;43.09
65384;BME280;51986;52.788;41.368;2023-02-23T06:50:40;98985.84;;;-10.24;43.39
65384;BME280;51986;52.788;41.368;2023-02-23T06:53:07;98964.81;;;-10.60;43.46
65384;BME280;51986;52.788;41.368;2023-02-23T06:55:34;98944.91;;;-10.48;42.73
65384;BME280;51986;52.788;41.368;2023-02-23T06:58:01;98941.13;;;-10.61;42.98
65384;BME280;51986;52.788;41.368;2023-02-23T07:00:28;98976.72;;;-9.86;42.97
65384;BME280;51986;52.788;41.368;2023-02-23T07:02:56;98975.25;;;-9.92;42.77
65384;BME280;51986;52.788;41.368;2023-02-23T07:05:23;98981.56;;;-10.34;42.83
65384;BME280;51986;52.788;41.368;2023-02-23T07:07:50;99003.72;;;-10.29;42.82
65384;BME280;51986;52.788;41.368;2023-02-23T07:10:17;98997.38;;;-10.42;44.11
65384;BME280;51986;52.788;41.368;2023-02-23T07:12:46;99002.47;;;-10.26;42.57
65384;BME280;51986;52.788;41.368;2023-02-23T07:15:14;98977.53;;;-9.90;43.14
65384;BME280;51986;52.788;41.368;2023-02-23T07:17:41;98967.66;;;-10.02;42.35
65384;BME280;51986;52.788;41.368;2023-02-23T07:20:09;98991.06;;;-9.21;41.22
65384;BME280;51986;52.788;41.368;2023-02-23T07:22:36;99010.13;;;-9.43;41.07
65384;BME280;51986;52.788;41.368;2023-02-23T07:25:06;98999.78;;;-9.62;41.77
65384;BME280;51986;52.788;41.368;2023-02-23T07:27:33;99023.34;;;-9.31;41.51
65384;BME280;51986;52.788;41.368;2023-02-23T07:30:00;99030.19;;;-8.63;40.08
65384;BME280;51986;52.788;41.368;2023-02-23T07:32:31;98995.19;;;-8.43;39.64
65384;BME280;51986;52.788;41.368;2023-02-23T07:34:58;99017.50;;;-8.49;40.58
65384;BME280;51986;52.788;41.368;2023-02-23T07:37:25;99012.88;;;-8.47;40.17
65384;BME280;51986;52.788;41.368;2023-02-23T07:39:52;99029.34;;;-8.10;39.10
65384;BME280;51986;52.788;41.368;2023-02-23T07:42:20;99029.59;;;-7.69;38.76
65384;BME280;51986;52.788;41.368;2023-02-23T07:44:47;99026.88;;;-7.97;38.70
65384;BME280;51986;52.788;41.368;2023-02-23T07:47:16;99033.44;;;-8.33;39.51
65384;BME280;51986;52.788;41.368;2023-02-23T07:49:43;99038.50;;;-8.04;39.74
65384;BME280;51986;52.788;41.368;2023-02-23T07:52:10;99026.19;;;-7.64;39.35
65384;BME280;51986;52.788;41.368;2023-02-23T07:54:37;99019.47;;;-7.79;39.50
65384;BME280;51986;52.788;41.368;2023-02-23T07:57:04;99031.16;;;-7.03;37.71
65384;BME280;51986;52.788;41.368;2023-02-23T07:59:31;99021.34;;;-7.47;38.51
65384;BME280;51986;52.788;41.368;2023-02-23T08:01:58;99059.50;;;-7.46;38.09
65384;BME280;51986;52.788;41.368;2023-02-23T08:04:25;99032.34;;;-8.27;39.96
65384;BME280;51986;52.788;41.368;2023-02-23T08:06:52;99051.47;;;-7.77;39.69
65384;BME280;51986;52.788;41.368;2023-02-23T08:09:20;99062.44;;;-7.38;39.44
65384;BME280;51986;52.788;41.368;2023-02-23T08:11:48;99051.16;;;-7.94;39.99
65384;BME280;51986;52.788;41.368;2023-02-23T08:14:15;99037.28;;;-7.69;40.24
65384;BME280;51986;52.788;41.368;2023-02-23T08:16:42;99014.97;;;-7.68;39.77
65384;BME280;51986;52.788;41.368;2023-02-23T08:19:09;99038.44;;;-7.42;38.96
65384;BME280;51986;52.788;41.368;2023-02-23T08:21:36;99019.88;;;-7.34;38.74
65384;BME280;51986;52.788;41.368;2023-02-23T08:24:05;99053.44;;;-6.71;37.78
65384;BME280;51986;52.788;41.368;2023-02-23T08:26:35;99053.28;;;-6.05;37.12
65384;BME280;51986;52.788;41.368;2023-02-23T08:29:02;99020.97;;;-6.34;37.35
65384;BME280;51986;52.788;41.368;2023-02-23T08:31:29;99058.97;;;-7.29;38.73
65384;BME280;51986;52.788;41.368;2023-02-23T08:33:57;99024.66;;;-7.84;39.43
65384;BME280;51986;52.788;41.368;2023-02-23T08:36:24;99035.47;;;-7.68;39.83
65384;BME280;51986;52.788;41.368;2023-02-23T08:38:51;99018.66;;;-7.56;39.42
65384;BME280;51986;52.788;41.368;2023-02-23T08:41:19;99050.84;;;-7.68;40.18
65384;BME280;51986;52.788;41.368;2023-02-23T08:43:47;99060.66;;;-7.38;39.52
65384;BME280;51986;52.788;41.368;2023-02-23T08:46:14;99055.34;;;-7.79;40.13
65384;BME280;51986;52.788;41.368;2023-02-23T08:48:41;99060.72;;;-7.24;39.72
65384;BME280;51986;52.788;41.368;2023-02-23T08:51:08;99050.50;;;-7.62;40.20
65384;BME280;51986;52.788;41.368;2023-02-23T08:53:35;99060.34;;;-7.18;39.06
65384;BME280;51986;52.788;41.368;2023-02-23T08:56:05;99060.69;;;-7.57;40.02
65384;BME280;51986;52.788;41.368;2023-02-23T08:58:35;99065.78;;;-7.76;40.52
65384;BME280;51986;52.788;41.368;2023-02-23T09:01:03;99081.97;;;-7.24;40.03
65384;BME280;51986;52.788;41.368;2023-02-23T09:03:31;99058.81;;;-7.19;39.79
65384;BME280;51986;52.788;41.368;2023-02-23T09:06:09;99066.00;;;-7.34;39.58
65384;BME280;51986;52.788;41.368;2023-02-23T09:08:37;99056.03;;;-7.55;40.13
65384;BME280;51986;52.788;41.368;2023-02-23T09:11:04;99057.59;;;-7.40;39.17
65384;BME280;51986;52.788;41.368;2023-02-23T09:13:32;99038.78;;;-7.68;40.83
65384;BME280;51986;52.788;41.368;2023-02-23T09:15:59;99074.72;;;-7.73;40.65
65384;BME280;51986;52.788;41.368;2023-02-23T09:18:26;99043.84;;;-7.44;40.49
65384;BME280;51986;52.788;41.368;2023-02-23T09:20:54;99074.16;;;-7.32;40.12
65384;BME280;51986;52.788;41.368;2023-02-23T09:23:22;99080.94;;;-7.79;40.58
65384;BME280;51986;52.788;41.368;2023-02-23T09:25:49;99076.88;;;-7.61;40.29
65384;BME280;51986;52.788;41.368;2023-02-23T09:28:18;99068.50;;;-8.10;41.43
65384;BME280;51986;52.788;41.368;2023-02-23T09:30:46;99062.34;;;-8.33;42.19
65384;BME280;51986;52.788;41.368;2023-02-23T09:33:13;99063.75;;;-8.22;42.60
65384;BME280;51986;52.788;41.368;2023-02-23T09:35:41;99089.31;;;-8.45;42.68
65384;BME280;51986;52.788;41.368;2023-02-23T09:38:08;99095.56;;;-8.04;42.06
65384;BME280;51986;52.788;41.368;2023-02-23T09:43:11;99081.94;;;-8.47;42.84
65384;BME280;51986;52.788;41.368;2023-02-23T09:45:43;99109.53;;;-8.73;43.82
65384;BME280;51986;52.788;41.368;2023-02-23T09:48:17;99090.09;;;-8.45;43.60
65384;BME280;51986;52.788;41.368;2023-02-23T09:50:52;99083.56;;;-8.32;43.78
65384;BME280;51986;52.788;41.368;2023-02-23T09:56:06;99115.19;;;-8.76;44.73
65384;BME280;51986;52.788;41.368;2023-02-23T09:58:36;99063.44;;;-8.39;43.46
65384;BME280;51986;52.788;41.368;2023-02-23T10:03:38;99088.53;;;-8.70;44.65
65384;BME280;51986;52.788;41.368;2023-02-23T10:06:08;99099.03;;;-8.42;44.25
65384;BME280;51986;52.788;41.368;2023-02-23T10:08:41;99093.66;;;-8.17;44.34
65384;BME280;51986;52.788;41.368;2023-02-23T10:11:44;99105.88;;;-7.66;43.30
65384;BME280;51986;52.788;41.368;2023-02-23T10:22:26;99089.69;;;-8.28;44.26
65384;BME280;51986;52.788;41.368;2023-02-23T10:24:55;99078.97;;;-8.06;44.06
65384;BME280;51986;52.788;41.368;2023-02-23T10:27:29;99081.25;;;-8.05;44.09
65384;BME280;51986;52.788;41.368;2023-02-23T10:29:59;99086.31;;;-8.00;44.04
65384;BME280;51986;52.788;41.368;2023-02-23T10:32:40;99086.47;;;-7.91;44.09
65384;BME280;51986;52.788;41.368;2023-02-23T10:35:15;99082.03;;;-7.85;44.23
65384;BME280;51986;52.788;41.368;2023-02-23T10:37:43;99093.28;;;-8.29;44.54
65384;BME280;51986;52.788;41.368;2023-02-23T10:40:20;99105.78;;;-8.04;44.07
65384;BME280;51986;52.788;41.368;2023-02-23T10:42:48;99097.94;;;-7.88;44.20
65384;BME280;51986;52.788;41.368;2023-02-23T10:45:20;99094.47;;;-7.98;43.95
65384;BME280;51986;52.788;41.368;2023-02-23T10:47:57;99109.19;;;-8.08;44.42
65384;BME280;51986;52.788;41.368;2023-02-23T10:50:25;99086.06;;;-7.60;44.31
65384;BME280;51986;52.788;41.368;2023-02-23T10:56:19;99106.91;;;-8.10;44.53
65384;BME280;51986;52.788;41.368;2023-02-23T10:59:05;99121.56;;;-7.91;43.83
65384;BME280;51986;52.788;41.368;2023-02-23T11:01:40;99124.19;;;-8.02;44.63
65384;BME280;51986;52.788;41.368;2023-02-23T11:04:29;99100.50;;;-8.12;44.37
65384;BME280;51986;52.788;41.368;2023-02-23T11:09:37;99116.44;;;-8.15;44.27
65384;BME280;51986;52.788;41.368;2023-02-23T11:12:39;99105.72;;;-8.47;44.79
65384;BME280;51986;52.788;41.368;2023-02-23T11:15:28;99122.56;;;-7.92;43.74
65384;BME280;51986;52.788;41.368;2023-02-23T11:18:21;99127.13;;;-8.37;45.16
65384;BME280;51986;52.788;41.368;2023-02-23T11:20:49;99121.63;;;-8.26;44.31
65384;BME280;51986;52.788;41.368;2023-02-23T11:23:23;99132.25;;;-8.37;45.17
65384;BME280;51986;52.788;41.368;2023-02-23T11:25:52;99135.28;;;-8.35;44.73
65384;BME280;51986;52.788;41.368;2023-02-23T11:28:24;99106.78;;;-8.53;44.81
65384;BME280;51986;52.788;41.368;2023-02-23T11:30:52;99123.97;;;-8.29;44.59
65384;BME280;51986;52.788;41.368;2023-02-23T11:33:24;99117.47;;;-8.45;44.96
65384;BME280;51986;52.788;41.368;2023-02-23T11:35:58;99146.78;;;-8.62;45.68
65384;BME280;51986;52.788;41.368;2023-02-23T11:38:28;99126.25;;;-8.57;45.31
65384;BME280;51986;52.788;41.368;2023-02-23T11:41:05;99121.47;;;-8.34;44.93
65384;BME280;51986;52.788;41.368;2023-02-23T11:43:32;99144.00;;;-8.36;44.74
65384;BME280;51986;52.788;41.368;2023-02-23T11:46:01;99115.94;;;-8.47;44.74
65384;BME280;51986;52.788;41.368;2023-02-23T11:48:57;99143.03;;;-8.16;44.98
65384;BME280;51986;52.788;41.368;2023-02-23T11:51:25;99126.53;;;-8.29;44.58
65384;BME280;51986;52.788;41.368;2023-02-23T11:53:55;99152.91;;;-8.05;44.63
65384;BME280;51986;52.788;41.368;2023-02-23T11:56:23;99144.22;;;-8.33;45.13
65384;BME280;51986;52.788;41.368;2023-02-23T11:58:54;99157.94;;;-8.24;45.13
65384;BME280;51986;52.788;41.368;2023-02-23T12:04:01;99146.44;;;-8.55;45.48
65384;BME280;51986;52.788;41.368;2023-02-23T12:06:39;99150.63;;;-8.35;44.71
65384;BME280;51986;52.788;41.368;2023-02-23T12:09:21;99171.19;;;-8.45;45.33
65384;BME280;51986;52.788;41.368;2023-02-23T12:12:10;99159.66;;;-8.43;45.57
65384;BME280;51986;52.788;41.368;2023-02-23T12:14:45;99160.28;;;-8.27;44.92
65384;BME280;51986;52.788;41.368;2023-02-23T12:17:18;99158.84;;;-8.38;45.57
65384;BME280;51986;52.788;41.368;2023-02-23T12:19:54;99168.91;;;-8.47;45.74
65384;BME280;51986;52.788;41.368;2023-02-23T12:22:28;99163.22;;;-8.73;45.97
65384;BME280;51986;52.788;41.368;2023-02-23T12:27:36;99166.75;;;-8.69;46.80
65384;BME280;51986;52.788;41.368;2023-02-23T12:30:18;99171.34;;;-8.66;46.31
65384;BME280;51986;52.788;41.368;2023-02-23T12:33:16;99184.63;;;-8.64;46.42
65384;BME280;51986;52.788;41.368;2023-02-23T12:38:47;99199.63;;;-8.86;46.43
65384;BME280;51986;52.788;41.368;2023-02-23T12:41:25;99173.75;;;-8.45;46.34
65384;BME280;51986;52.788;41.368;2023-02-23T12:44:03;99175.47;;;-8.70;46.33
65384;BME280;51986;52.788;41.368;2023-02-23T12:46:43;99196.47;;;-8.78;47.09
65384;BME280;51986;52.788;41.368;2023-02-23T12:49:27;99172.38;;;-9.06;47.42
65384;BME280;51986;52.788;41.368;2023-02-23T12:52:18;99180.25;;;-8.98;47.50
65384;BME280;51986;52.788;41.368;2023-02-23T12:54:47;99180.75;;;-8.95;47.63
65384;BME280;51986;52.788;41.368;2023-02-23T12:57:31;99196.78;;;-8.85;47.50
65384;BME280;51986;52.788;41.368;2023-02-23T13:03:06;99195.88;;;-9.04;47.17
65384;BME280;51986;52.788;41.368;2023-02-23T13:11:00;99213.53;;;-9.13;48.22
65384;BME280;51986;52.788;41.368;2023-02-23T13:16:25;99180.66;;;-9.25;48.30
65384;BME280;51986;52.788;41.368;2023-02-23T13:24:34;99213.44;;;-9.47;48.94
65384;BME280;51986;52.788;41.368;2023-02-23T13:27:39;99195.53;;;-9.42;48.92
65384;BME280;51986;52.788;41.368;2023-02-23T13:30:08;99203.72;;;-9.40;49.29
65384;BME280;51986;52.788;41.368;2023-02-23T13:32:36;99207.09;;;-9.60;49.83
65384;BME280;51986;52.788;41.368;2023-02-23T13:35:07;99208.06;;;-9.51;49.37
65384;BME280;51986;52.788;41.368;2023-02-23T13:37:51;99206.34;;;-9.65;49.70
65384;BME280;51986;52.788;41.368;2023-02-23T13:40:25;99226.53;;;-9.84;50.27
65384;BME280;51986;52.788;41.368;2023-02-23T13:48:58;99219.66;;;-9.73;49.94
65384;BME280;51986;52.788;41.368;2023-02-23T13:56:43;99213.84;;;-9.94;50.02
65384;BME280;51986;52.788;41.368;2023-02-23T13:59:18;99192.44;;;-10.14;50.19
65384;BME280;51986;52.788;41.368;2023-02-23T14:01:50;99227.13;;;-10.13;50.34
65384;BME280;51986;52.788;41.368;2023-02-23T14:04:26;99218.97;;;-10.20;50.64
65384;BME280;51986;52.788;41.368;2023-02-23T14:12:34;99220.78;;;-10.25;50.90
65384;BME280;51986;52.788;41.368;2023-02-23T14:18:01;99203.91;;;-10.47;51.43
65384;BME280;51986;52.788;41.368;2023-02-23T14:23:17;99252.38;;;-10.42;51.18
65384;BME280;51986;52.788;41.368;2023-02-23T14:31:53;99234.50;;;-10.57;51.63
65384;BME280;51986;52.788;41.368;2023-02-23T14:34:21;99256.66;;;-10.78;51.95
65384;BME280;51986;52.788;41.368;2023-02-23T14:36:49;99267.09;;;-10.80;52.50
65384;BME280;51986;52.788;41.368;2023-02-23T14:39:27;99256.41;;;-10.71;51.98
65384;BME280;51986;52.788;41.368;2023-02-23T14:41:58;99250.81;;;-10.78;52.08
65384;BME280;51986;52.788;41.368;2023-02-23T14:44:30;99270.16;;;-10.83;51.95
65384;BME280;51986;52.788;41.368;2023-02-23T14:47:11;99266.03;;;-10.94;52.64
65384;BME280;51986;52.788;41.368;2023-02-23T14:49:50;99266.31;;;-10.80;52.50
65384;BME280;51986;52.788;41.368;2023-02-23T14:52:23;99255.06;;;-10.99;51.82